Terminal Aerodrome Forecast
Issued by NWS Twin Cities, MN

Home | Current Version | Previous Version | Graphics & Text | Print | Product List | Glossary On
Versions: 1 2 3 4 5 6 7 8 9 10 11 12 13 14 15 16 17 18 19 20 21 22 23 24
000
FTUS43 KMPX 190500
TAFEAU
TAF
KEAU 190520Z 1906/2006 VRB02KT P6SM BKN015
     FM191000 28003KT 5SM BR OVC008
     FM191100 28003KT 2SM BR OVC004
     FM191500 31006KT P6SM SCT010 BKN100
     FM191800 31007KT P6SM VCSH SCT060 BKN100=

USA.gov is the U.S. government's official web portal to all federal, state and local government web resources and services.